Time;durP1;ratioP1;P1;durP2;ratioP2;P2;SDS_P1;SDS_P2;PMS_P1;PMS_P2;Temp;Humidity;BMP_temperature;BMP_pressure;BME280_temperature;BME280_humidity;BME280_pressure;Samples;Min_cycle;Max_cycle;Signal;HPM_P1;HPM_P2
2023/05/17 00:00:39;;;;;;;40.72;10.75;;;15.70;99.90;;;;;;6220593;23;20326;-92
2023/05/17 00:03:23;;;;;;;37.20;10.75;;;15.70;99.90;;;;;;6242516;22;20020;-93
2023/05/17 00:05:58;;;;;;;32.25;11.05;;;15.70;99.90;;;;;;6220714;23;20041;-92
2023/05/17 00:08:32;;;;;;;34.13;10.15;;;15.70;99.90;;;;;;6245030;23;20038;-93
2023/05/17 00:11:38;;;;;;;34.05;11.68;;;15.60;99.90;;;;;;6242632;23;20016;-93
2023/05/17 00:14:28;;;;;;;33.85;10.68;;;15.60;99.90;;;;;;6246188;23;20001;-94
2023/05/17 00:17:17;;;;;;;;;;;15.60;99.90;;;;;;6101798;23;20022;-93
2023/05/17 00:20:02;;;;;;;29.73;9.80;;;15.60;99.90;;;;;;6101011;23;19905;-92
2023/05/17 00:23:15;;;;;;;43.08;10.98;;;15.50;99.90;;;;;;6123611;23;20010;-93
2023/05/17 00:25:59;;;;;;;30.02;10.13;;;15.50;99.90;;;;;;6087124;23;20006;-92
2023/05/17 00:28:31;;;;;;;29.65;11.73;;;15.50;99.90;;;;;;6103302;23;20010;-94
2023/05/17 00:31:15;;;;;;;37.03;12.48;;;15.50;99.90;;;;;;6104179;23;20014;-92
2023/05/17 00:34:00;;;;;;;34.40;11.27;;;15.40;99.90;;;;;;6106052;23;20435;-92
2023/05/17 00:36:43;;;;;;;38.70;10.93;;;15.40;99.90;;;;;;6079811;23;20125;-93
2023/05/17 00:39:37;;;;;;;32.13;9.80;;;15.30;99.90;;;;;;6080121;23;20013;-92
2023/05/17 00:42:33;;;;;;;52.30;10.65;;;15.30;99.90;;;;;;6102498;23;20080;-93
2023/05/17 00:45:15;;;;;;;39.03;11.10;;;15.30;99.90;;;;;;6040364;23;20033;-93
2023/05/17 00:48:08;;;;;;;33.58;10.45;;;15.30;99.90;;;;;;6017000;23;20043;-93
2023/05/17 00:50:47;;;;;;;30.23;9.25;;;15.20;99.90;;;;;;6014870;23;20007;-93
2023/05/17 00:53:32;;;;;;;25.83;9.07;;;15.10;99.90;;;;;;6037605;23;20010;-95
2023/05/17 00:56:11;;;;;;;31.77;9.10;;;15.10;99.90;;;;;;6102345;23;20010;-93
2023/05/17 01:02:13;;;;;;;29.15;9.80;;;15.00;99.90;;;;;;5960424;24;20016;-93
2023/05/17 01:04:50;;;;;;;30.23;10.10;;;15.00;99.90;;;;;;5961649;24;20016;-92
2023/05/17 01:07:30;;;;;;;29.33;9.75;;;15.00;99.90;;;;;;5960647;24;20012;-92
2023/05/17 01:10:07;;;;;;;35.08;10.00;;;15.00;99.90;;;;;;5961285;24;20458;-92
2023/05/17 01:13:01;;;;;;;29.10;9.65;;;14.90;99.90;;;;;;5961371;24;20046;-92
2023/05/17 01:15:36;;;;;;;34.08;9.63;;;14.90;99.90;;;;;;5933453;24;20016;-90
2023/05/17 01:18:17;;;;;;;29.42;9.30;;;14.80;99.90;;;;;;5960511;24;20073;-92
2023/05/17 01:21:11;;;;;;;29.92;9.65;;;14.80;99.90;;;;;;5983646;23;20070;-92
2023/05/17 01:23:49;;;;;;;31.65;9.75;;;14.80;99.90;;;;;;6016209;23;20019;-94
2023/05/17 01:26:57;;;;;;;28.13;8.93;;;14.80;99.90;;;;;;6016383;23;20015;-93
2023/05/17 01:29:51;;;;;;;29.05;8.13;;;14.80;99.90;;;;;;6041304;23;20087;-93
2023/05/17 01:32:32;;;;;;;28.77;8.23;;;14.70;99.90;;;;;;6089643;23;20087;-93
2023/05/17 01:35:08;;;;;;;28.30;9.45;;;14.70;99.90;;;;;;6192410;23;20050;-92
2023/05/17 01:37:41;;;;;;;30.58;8.82;;;14.60;99.90;;;;;;6168368;23;20036;-92
2023/05/17 01:40:20;;;;;;;27.90;9.93;;;14.50;99.90;;;;;;6193795;23;20012;-93
2023/05/17 01:43:24;;;;;;;20.73;8.60;;;14.50;99.90;;;;;;6197933;23;20046;-92
2023/05/17 01:46:42;;;;;;;23.95;8.05;;;14.50;99.90;;;;;;6210036;23;20012;-92
2023/05/17 01:49:30;;;;;;;33.65;9.95;;;14.50;99.90;;;;;;6102155;23;20010;-93
2023/05/17 01:52:31;;;;;;;35.92;9.43;;;14.50;99.90;;;;;;6227389;23;20008;-93
2023/05/17 01:55:07;;;;;;;36.10;10.05;;;14.60;99.90;;;;;;6232482;22;20369;-93
2023/05/17 01:57:36;;;;;;;33.17;10.32;;;14.60;99.90;;;;;;6221826;23;20024;-92
2023/05/17 02:00:11;;;;;;;36.35;9.80;;;14.70;99.90;;;;;;6246626;23;20028;-93
2023/05/17 02:02:46;;;;;;;36.67;10.40;;;14.70;99.90;;;;;;6244995;23;20095;-91
2023/05/17 02:05:12;;;;;;;39.38;9.60;;;14.70;99.90;;;;;;6242787;22;20020;-91
2023/05/17 02:07:42;;;;;;;32.42;9.95;;;14.70;99.90;;;;;;6222397;23;20442;-92
2023/05/17 02:10:09;;;;;;;30.35;9.13;;;14.70;99.90;;;;;;6247836;23;20452;-94
2023/05/17 02:12:41;;;;;;;29.10;9.27;;;14.70;99.90;;;;;;6223055;23;20004;-92
2023/05/17 02:15:10;;;;;;;28.38;9.40;;;14.80;99.90;;;;;;6246808;23;20349;-93
2023/05/17 02:17:42;;;;;;;36.95;9.80;;;14.80;99.90;;;;;;6224539;23;20012;-92
2023/05/17 02:20:32;;;;;;;38.58;10.68;;;14.80;99.90;;;;;;6223622;23;20004;-94
2023/05/17 02:23:02;;;;;;;37.20;9.88;;;14.90;99.90;;;;;;6222140;23;20063;-91
2023/05/17 02:25:34;;;;;;;35.13;9.63;;;14.90;99.90;;;;;;6221786;23;20012;-92
2023/05/17 02:28:04;;;;;;;28.43;8.63;;;14.90;99.90;;;;;;6247023;23;20008;-92
2023/05/17 02:30:34;;;;;;;33.08;9.02;;;14.90;99.90;;;;;;6221729;23;20005;-92
2023/05/17 02:33:01;;;;;;;29.35;8.35;;;14.90;99.90;;;;;;6246531;23;20004;-92
2023/05/17 02:35:29;;;;;;;22.90;9.10;;;14.80;99.90;;;;;;6221296;23;20458;-92
2023/05/17 02:37:59;;;;;;;40.05;10.10;;;14.80;99.90;;;;;;6218115;23;20454;-93
2023/05/17 02:40:28;;;;;;;36.50;8.93;;;14.70;99.90;;;;;;6222366;23;20000;-92
2023/05/17 02:42:57;;;;;;;29.45;10.18;;;14.80;99.90;;;;;;6246487;23;20004;-93
2023/05/17 02:45:24;;;;;;;26.83;8.65;;;14.70;99.90;;;;;;6222782;23;20106;-92
2023/05/17 02:48:04;;;;;;;28.50;9.38;;;14.80;99.90;;;;;;6222062;23;20004;-93
2023/05/17 02:50:39;;;;;;;38.15;10.18;;;14.90;99.90;;;;;;6246712;23;20012;-91
2023/05/17 02:53:13;;;;;;;27.90;8.75;;;14.90;99.90;;;;;;6221272;23;20015;-93
2023/05/17 02:55:44;;;;;;;24.83;8.57;;;15.00;99.90;;;;;;6245940;23;20015;-94
2023/05/17 02:58:11;;;;;;;33.45;8.88;;;15.00;99.90;;;;;;6221434;23;20346;-92
2023/05/17 03:00:38;;;;;;;29.17;9.07;;;15.10;99.90;;;;;;6246415;23;20083;-93
2023/05/17 03:03:13;;;;;;;35.17;10.15;;;15.10;99.90;;;;;;6221722;23;20512;-92
2023/05/17 03:05:51;;;;;;;25.98;9.40;;;15.10;99.90;;;;;;6220469;23;20023;-93
2023/05/17 03:08:21;;;;;;;19.10;8.82;;;15.10;99.90;;;;;;6246263;22;20016;-92
2023/05/17 03:10:55;;;;;;;24.13;8.32;;;15.10;99.90;;;;;;6221397;23;20087;-92
2023/05/17 03:13:22;;;;;;;31.45;8.45;;;15.20;99.90;;;;;;6246185;23;20377;-92
2023/05/17 03:15:52;;;;;;;32.90;8.93;;;15.10;99.90;;;;;;6221395;23;20004;-94
2023/05/17 03:18:27;;;;;;;35.35;8.52;;;15.10;99.90;;;;;;6247719;22;20008;-93
2023/05/17 03:21:12;;;;;;;30.23;8.90;;;15.10;99.90;;;;;;6247775;23;20075;-95
2023/05/17 03:24:01;;;;;;;24.88;7.35;;;15.10;99.90;;;;;;6246455;23;20004;-91
2023/05/17 03:26:37;;;;;;;25.85;8.70;;;15.10;99.90;;;;;;6246898;23;20019;-92
2023/05/17 03:29:33;;;;;;;31.77;10.07;;;15.20;99.90;;;;;;6139134;23;20049;-93
2023/05/17 03:32:07;;;;;;;24.48;8.32;;;15.20;99.90;;;;;;6107481;23;20081;-92
2023/05/17 03:34:55;;;;;;;30.38;8.75;;;15.20;99.90;;;;;;6132393;23;20029;-93
2023/05/17 03:38:29;;;;;;;23.20;7.90;;;15.20;99.90;;;;;;6132332;23;20049;-93
2023/05/17 03:41:31;;;;;;;16.67;6.97;;;15.20;99.90;;;;;;6098837;23;20010;-93
2023/05/17 03:46:41;;;;;;;18.65;6.63;;;15.30;99.90;;;;;;6223084;23;20445;-91
2023/05/17 03:49:10;;;;;;;20.52;7.38;;;15.30;99.90;;;;;;6198898;22;20008;-92
2023/05/17 03:51:37;;;;;;;26.60;7.60;;;15.30;99.90;;;;;;6226249;22;20012;-93
2023/05/17 03:54:03;;;;;;;22.25;7.82;;;15.40;99.90;;;;;;6226021;22;20382;-92
2023/05/17 03:56:31;;;;;;;21.42;6.90;;;15.40;99.90;;;;;;6225811;22;20016;-93
2023/05/17 03:58:57;;;;;;;19.67;7.00;;;15.40;99.90;;;;;;6225508;22;20004;-93
2023/05/17 04:01:25;;;;;;;21.63;6.97;;;15.40;99.90;;;;;;6226423;22;20003;-93
2023/05/17 04:03:51;;;;;;;16.33;7.07;;;15.40;99.90;;;;;;6226334;22;20027;-92
2023/05/17 04:06:23;;;;;;;21.52;6.60;;;15.50;99.90;;;;;;6228862;22;20004;-93
2023/05/17 04:09:16;;;;;;;25.30;6.78;;;15.70;99.90;;;;;;6232126;22;20456;-93
2023/05/17 04:11:43;;;;;;;13.57;6.95;;;15.70;99.90;;;;;;6225692;22;20004;-93
2023/05/17 04:14:14;;;;;;;12.57;6.22;;;15.70;99.90;;;;;;6228340;22;20122;-95
2023/05/17 04:16:41;;;;;;;18.55;7.10;;;15.80;99.90;;;;;;6228127;22;20050;-92
2023/05/17 04:22:30;;;;;;;14.27;6.28;;;16.00;99.90;;;;;;6268006;22;20420;-93
2023/05/17 04:25:00;;;;;;;19.25;6.97;;;16.10;99.90;;;;;;6253208;22;20004;-94
2023/05/17 04:27:37;;;;;;;13.27;6.65;;;16.10;99.90;;;;;;6228812;22;20008;-94
2023/05/17 04:30:24;;;;;;;16.45;7.30;;;16.30;99.90;;;;;;6256737;22;20012;-94
2023/05/17 04:33:05;;;;;;;10.10;7.10;;;16.50;99.90;;;;;;6227717;23;20075;-94
2023/05/17 04:35:31;;;;;;;14.45;7.03;;;16.60;99.90;;;;;;6224067;23;20004;-92
2023/05/17 04:41:30;;;;;;;14.93;7.68;;;16.60;99.90;;;;;;6295040;22;20023;-92
2023/05/17 04:44:31;;;;;;;18.58;8.70;;;16.50;99.90;;;;;;6240076;22;20122;-92
2023/05/17 04:47:02;;;;;;;15.95;8.15;;;16.50;99.90;;;;;;6229010;22;20068;-92
2023/05/17 04:49:40;;;;;;;9.73;8.20;;;16.40;99.90;;;;;;6253476;22;20042;-93
2023/05/17 04:52:07;;;;;;;14.63;8.18;;;16.40;99.90;;;;;;6253239;22;20011;-92
2023/05/17 05:04:12;;;;;;;17.15;8.13;;;16.50;99.90;;;;;;6286727;22;20024;-93
2023/05/17 05:06:59;;;;;;;23.08;8.50;;;16.60;99.90;;;;;;6193667;23;20415;-91
2023/05/17 05:13:31;;;;;;;12.95;8.48;;;17.10;99.90;;;;;;6005228;23;20015;-93
2023/05/17 05:15:58;;;;;;;13.38;9.30;;;18.30;99.90;;;;;;6015846;23;20102;-92
2023/05/17 05:18:26;;;;;;;17.77;11.85;;;18.80;99.90;;;;;;6045285;23;20487;-93
2023/05/17 05:20:53;;;;;;;14.20;12.93;;;18.90;99.90;;;;;;6044971;23;20140;-93
2023/05/17 05:23:19;;;;;;;14.30;13.13;;;18.70;99.90;;;;;;6044717;23;20082;-92
2023/05/17 05:25:49;;;;;;;15.00;12.35;;;18.30;99.90;;;;;;6044944;23;20030;-93
2023/05/17 05:28:16;;;;;;;15.77;12.90;;;18.10;99.90;;;;;;6045063;23;20011;-93
2023/05/17 05:30:43;;;;;;;16.80;14.85;;;18.60;99.90;;;;;;6044634;23;20034;-93
2023/05/17 05:33:11;;;;;;;22.67;16.15;;;19.70;99.90;;;;;;6044806;23;20449;-94
2023/05/17 05:35:46;;;;;;;16.92;15.23;;;20.70;99.90;;;;;;6044837;23;20006;-92
2023/05/17 05:38:15;;;;;;;17.02;14.80;;;21.80;99.90;;;;;;6045276;23;20066;-94
2023/05/17 05:40:41;;;;;;;17.48;16.20;;;22.30;99.90;;;;;;6045589;23;20326;-93
2023/05/17 05:43:09;;;;;;;19.92;18.10;;;23.30;99.90;;;;;;6048756;23;20015;-94
2023/05/17 05:45:35;;;;;;;20.38;18.58;;;23.70;99.90;;;;;;6075589;23;20122;-92
2023/05/17 05:48:04;;;;;;;20.65;18.48;;;23.30;99.90;;;;;;6075986;23;20007;-93
2023/05/17 05:50:34;;;;;;;20.10;18.45;;;23.40;99.90;;;;;;6176488;23;20004;-94
2023/05/17 05:53:12;;;;;;;21.08;19.40;;;23.90;99.90;;;;;;6224138;23;20035;-93
2023/05/17 05:55:42;;;;;;;21.58;19.55;;;24.80;99.90;;;;;;6199279;23;20011;-93
2023/05/17 05:58:09;;;;;;;22.40;20.38;;;25.00;99.90;;;;;;6198433;23;20492;-94
2023/05/17 06:00:40;;;;;;;21.83;20.33;;;26.20;99.90;;;;;;6200110;23;20007;-93
2023/05/17 06:03:13;;;;;;;22.17;20.33;;;26.00;99.90;;;;;;6200081;23;20028;-93
2023/05/17 06:05:42;;;;;;;22.45;20.52;;;25.60;99.90;;;;;;6207804;23;20019;-94
2023/05/17 06:08:15;;;;;;;23.05;21.08;;;25.20;99.90;;;;;;6200399;23;20008;-94
2023/05/17 21:33:55;;;;;;;18.20;15.55;;;16.90;99.90;;;;;;6248907;22;20031;-92
2023/05/17 21:36:54;;;;;;;24.23;15.55;;;16.90;99.90;;;;;;6186349;23;20016;-91
2023/05/17 21:39:22;;;;;;;21.63;16.10;;;16.80;99.90;;;;;;6161577;23;20012;-92
2023/05/17 21:41:49;;;;;;;18.80;15.15;;;16.80;99.90;;;;;;6162461;23;20005;-94
2023/05/17 21:44:18;;;;;;;22.52;16.23;;;16.80;99.90;;;;;;6161649;23;20019;-92
2023/05/17 21:46:59;;;;;;;23.08;16.77;;;16.80;99.90;;;;;;6161679;23;20001;-93
2023/05/17 21:49:35;;;;;;;19.25;15.52;;;16.80;99.90;;;;;;6186715;23;20114;-93
2023/05/17 21:52:05;;;;;;;23.27;15.40;;;16.80;99.90;;;;;;6161392;23;20068;-93
2023/05/17 21:54:31;;;;;;;20.30;15.90;;;16.80;99.90;;;;;;6185960;23;20013;-92
2023/05/17 21:56:58;;;;;;;20.83;15.43;;;16.80;99.90;;;;;;6186108;23;20020;-92
2023/05/17 21:59:26;;;;;;;26.25;15.20;;;16.80;99.90;;;;;;6185486;23;20032;-91
2023/05/17 22:01:56;;;;;;;22.02;15.00;;;16.80;99.90;;;;;;6185598;23;20041;-92
2023/05/17 22:04:25;;;;;;;25.40;15.75;;;16.70;99.90;;;;;;6185757;23;20009;-92
2023/05/17 22:06:52;;;;;;;19.70;14.27;;;16.70;99.90;;;;;;6161132;23;20135;-91
2023/05/17 22:09:19;;;;;;;20.63;14.57;;;16.70;99.90;;;;;;6161266;23;20481;-92
2023/05/17 22:11:46;;;;;;;19.98;15.05;;;16.70;99.90;;;;;;6163154;23;20016;-92
2023/05/17 22:14:13;;;;;;;22.80;15.60;;;16.60;99.90;;;;;;6191029;23;20461;-92
2023/05/17 22:16:40;;;;;;;30.67;14.30;;;16.60;99.90;;;;;;6196486;23;20016;-92
2023/05/17 22:19:10;;;;;;;23.40;14.52;;;16.50;99.90;;;;;;6200637;23;20422;-93
2023/05/17 22:25:17;;;;;;;26.02;14.02;;;16.50;99.90;;;;;;6269686;22;20051;-93
2023/05/17 22:27:44;;;;;;;27.00;14.10;;;16.40;99.90;;;;;;6223097;22;20011;-92
